OIBA METAR and TAF | Updated Today

OIBA METAR

Abu Musa Island Airport

Observation time: 39 min. ago

OIBA 200600Z 18006KT 6000 NSC 31/25 Q1001

Need help? Read our tutorial on how to read METARs or read the parsed version below.

Abu Musa Island Airport (OIBA) METAR

  • Weather conditions on Fri, 20 May 2022 06:00:00 +0000 (39 min. ago):
  • Present conditions: Dry
  • Clouds: No significant clouds are observed
  • Visibility: 6000 meters
  • Wind: 180 degrees at 6 knots
  • Temperature: 31 celsius
  • Dew point: 25 celsius
  • Pressure: 1001 millibars
  • Remarks: None


Useful to know...